sensor_id;sensor_type;location;lat;lon;timestamp;P1;durP1;ratioP1;P2;durP2;ratioP2
52798;SDS011;38667;42.872;74.622;2022-08-25T00:01:00;12.18;;;4.13;;
52798;SDS011;38667;42.872;74.622;2022-08-25T00:03:32;24.45;;;4.03;;
52798;SDS011;38667;42.872;74.622;2022-08-25T00:05:59;9.38;;;3.05;;
52798;SDS011;38667;42.872;74.622;2022-08-25T00:08:25;5.97;;;3.35;;
52798;SDS011;38667;42.872;74.622;2022-08-25T00:10:53;13.15;;;3.80;;
52798;SDS011;38667;42.872;74.622;2022-08-25T00:13:20;15.00;;;3.78;;
52798;SDS011;38667;42.872;74.622;2022-08-25T00:15:46;8.75;;;3.50;;
52798;SDS011;38667;42.872;74.622;2022-08-25T00:18:13;11.73;;;3.42;;
52798;SDS011;38667;42.872;74.622;2022-08-25T00:20:39;6.43;;;2.97;;
52798;SDS011;38667;42.872;74.622;2022-08-25T00:23:05;7.53;;;3.33;;
52798;SDS011;38667;42.872;74.622;2022-08-25T00:25:33;11.80;;;3.22;;
52798;SDS011;38667;42.872;74.622;2022-08-25T00:28:02;13.07;;;3.33;;
52798;SDS011;38667;42.872;74.622;2022-08-25T00:30:29;13.05;;;3.33;;
52798;SDS011;38667;42.872;74.622;2022-08-25T00:32:55;11.45;;;3.10;;
52798;SDS011;38667;42.872;74.622;2022-08-25T00:35:22;8.88;;;2.78;;
52798;SDS011;38667;42.872;74.622;2022-08-25T00:37:49;6.57;;;2.47;;
52798;SDS011;38667;42.872;74.622;2022-08-25T00:40:16;8.27;;;2.22;;
52798;SDS011;38667;42.872;74.622;2022-08-25T00:42:42;12.50;;;2.97;;
52798;SDS011;38667;42.872;74.622;2022-08-25T00:45:11;7.10;;;2.60;;
52798;SDS011;38667;42.872;74.622;2022-08-25T00:47:37;8.05;;;2.28;;
52798;SDS011;38667;42.872;74.622;2022-08-25T00:50:06;12.40;;;3.15;;
52798;SDS011;38667;42.872;74.622;2022-08-25T00:52:35;8.93;;;2.67;;
52798;SDS011;38667;42.872;74.622;2022-08-25T00:55:06;8.98;;;3.00;;
52798;SDS011;38667;42.872;74.622;2022-08-25T00:57:37;8.55;;;3.08;;
52798;SDS011;38667;42.872;74.622;2022-08-25T01:00:07;11.63;;;3.35;;
52798;SDS011;38667;42.872;74.622;2022-08-25T01:02:39;11.85;;;3.13;;
52798;SDS011;38667;42.872;74.622;2022-08-25T01:05:05;12.27;;;3.10;;
52798;SDS011;38667;42.872;74.622;2022-08-25T01:07:32;10.50;;;3.15;;
52798;SDS011;38667;42.872;74.622;2022-08-25T01:09:58;11.82;;;2.97;;
52798;SDS011;38667;42.872;74.622;2022-08-25T01:12:26;5.00;;;2.63;;
52798;SDS011;38667;42.872;74.622;2022-08-25T01:14:52;6.43;;;2.88;;
52798;SDS011;38667;42.872;74.622;2022-08-25T01:17:22;7.30;;;2.53;;
52798;SDS011;38667;42.872;74.622;2022-08-25T01:19:48;9.77;;;3.28;;
52798;SDS011;38667;42.872;74.622;2022-08-25T01:22:16;6.85;;;2.70;;
52798;SDS011;38667;42.872;74.622;2022-08-25T01:24:44;7.85;;;2.55;;
52798;SDS011;38667;42.872;74.622;2022-08-25T01:27:16;11.20;;;3.00;;
52798;SDS011;38667;42.872;74.622;2022-08-25T01:29:42;13.10;;;2.85;;
52798;SDS011;38667;42.872;74.622;2022-08-25T01:32:10;13.55;;;3.30;;
52798;SDS011;38667;42.872;74.622;2022-08-25T01:34:38;11.75;;;3.55;;
52798;SDS011;38667;42.872;74.622;2022-08-25T01:37:07;8.63;;;3.38;;
52798;SDS011;38667;42.872;74.622;2022-08-25T01:39:36;6.88;;;3.28;;
52798;SDS011;38667;42.872;74.622;2022-08-25T01:42:08;7.45;;;2.63;;
52798;SDS011;38667;42.872;74.622;2022-08-25T01:44:44;11.65;;;3.15;;
52798;SDS011;38667;42.872;74.622;2022-08-25T01:47:11;14.98;;;3.33;;
52798;SDS011;38667;42.872;74.622;2022-08-25T01:49:39;10.68;;;3.22;;
52798;SDS011;38667;42.872;74.622;2022-08-25T01:52:09;13.60;;;3.40;;
52798;SDS011;38667;42.872;74.622;2022-08-25T01:54:40;11.27;;;3.05;;
52798;SDS011;38667;42.872;74.622;2022-08-25T01:57:06;10.20;;;3.20;;
52798;SDS011;38667;42.872;74.622;2022-08-25T01:59:33;14.27;;;4.55;;
52798;SDS011;38667;42.872;74.622;2022-08-25T02:01:59;17.20;;;3.88;;
52798;SDS011;38667;42.872;74.622;2022-08-25T02:04:25;10.52;;;3.80;;
52798;SDS011;38667;42.872;74.622;2022-08-25T02:06:52;11.35;;;4.15;;
52798;SDS011;38667;42.872;74.622;2022-08-25T02:09:18;14.52;;;3.92;;
52798;SDS011;38667;42.872;74.622;2022-08-25T02:11:46;12.43;;;4.22;;
52798;SDS011;38667;42.872;74.622;2022-08-25T02:14:13;16.48;;;3.95;;
52798;SDS011;38667;42.872;74.622;2022-08-25T02:16:40;12.07;;;3.97;;
52798;SDS011;38667;42.872;74.622;2022-08-25T02:19:09;13.88;;;3.60;;
52798;SDS011;38667;42.872;74.622;2022-08-25T02:21:36;11.88;;;4.10;;
52798;SDS011;38667;42.872;74.622;2022-08-25T02:24:03;16.30;;;3.45;;
52798;SDS011;38667;42.872;74.622;2022-08-25T02:26:29;10.43;;;3.30;;
52798;SDS011;38667;42.872;74.622;2022-08-25T02:28:57;19.17;;;3.20;;
52798;SDS011;38667;42.872;74.622;2022-08-25T02:31:24;10.77;;;3.20;;
52798;SDS011;38667;42.872;74.622;2022-08-25T02:33:51;10.82;;;3.30;;
52798;SDS011;38667;42.872;74.622;2022-08-25T02:36:18;9.98;;;3.33;;
52798;SDS011;38667;42.872;74.622;2022-08-25T02:38:45;11.75;;;3.08;;
52798;SDS011;38667;42.872;74.622;2022-08-25T02:41:12;13.32;;;3.92;;
52798;SDS011;38667;42.872;74.622;2022-08-25T02:43:40;15.75;;;3.53;;
52798;SDS011;38667;42.872;74.622;2022-08-25T02:46:09;6.80;;;3.13;;
52798;SDS011;38667;42.872;74.622;2022-08-25T02:48:36;8.68;;;3.28;;
52798;SDS011;38667;42.872;74.622;2022-08-25T02:51:03;8.43;;;3.10;;
52798;SDS011;38667;42.872;74.622;2022-08-25T02:53:31;7.53;;;2.70;;
52798;SDS011;38667;42.872;74.622;2022-08-25T02:55:58;6.53;;;2.88;;
52798;SDS011;38667;42.872;74.622;2022-08-25T02:58:24;10.07;;;3.58;;
52798;SDS011;38667;42.872;74.622;2022-08-25T03:00:51;7.20;;;3.97;;
52798;SDS011;38667;42.872;74.622;2022-08-25T03:03:19;20.83;;;4.95;;
52798;SDS011;38667;42.872;74.622;2022-08-25T03:05:45;8.07;;;4.60;;
52798;SDS011;38667;42.872;74.622;2022-08-25T03:08:12;18.08;;;5.03;;
52798;SDS011;38667;42.872;74.622;2022-08-25T03:10:38;15.63;;;4.88;;
52798;SDS011;38667;42.872;74.622;2022-08-25T03:13:05;9.95;;;4.88;;
52798;SDS011;38667;42.872;74.622;2022-08-25T03:15:31;13.20;;;6.22;;
52798;SDS011;38667;42.872;74.622;2022-08-25T03:17:58;30.50;;;8.32;;
52798;SDS011;38667;42.872;74.622;2022-08-25T03:20:26;16.70;;;6.43;;
52798;SDS011;38667;42.872;74.622;2022-08-25T03:22:52;14.93;;;5.85;;
52798;SDS011;38667;42.872;74.622;2022-08-25T03:25:18;18.60;;;6.88;;
52798;SDS011;38667;42.872;74.622;2022-08-25T03:27:45;13.95;;;4.95;;
52798;SDS011;38667;42.872;74.622;2022-08-25T03:30:11;8.30;;;3.97;;
52798;SDS011;38667;42.872;74.622;2022-08-25T03:32:38;10.93;;;4.35;;
52798;SDS011;38667;42.872;74.622;2022-08-25T03:35:04;8.45;;;3.72;;
52798;SDS011;38667;42.872;74.622;2022-08-25T03:37:33;12.60;;;4.43;;
52798;SDS011;38667;42.872;74.622;2022-08-25T03:40:00;11.25;;;4.75;;
52798;SDS011;38667;42.872;74.622;2022-08-25T03:42:28;11.50;;;4.40;;
52798;SDS011;38667;42.872;74.622;2022-08-25T03:44:54;10.23;;;4.13;;
52798;SDS011;38667;42.872;74.622;2022-08-25T03:47:21;11.98;;;4.93;;
52798;SDS011;38667;42.872;74.622;2022-08-25T03:49:47;13.13;;;4.68;;
52798;SDS011;38667;42.872;74.622;2022-08-25T03:52:13;13.52;;;4.53;;
52798;SDS011;38667;42.872;74.622;2022-08-25T03:54:41;12.23;;;4.85;;
52798;SDS011;38667;42.872;74.622;2022-08-25T03:57:07;12.32;;;4.68;;
52798;SDS011;38667;42.872;74.622;2022-08-25T03:59:34;11.15;;;3.70;;
52798;SDS011;38667;42.872;74.622;2022-08-25T04:02:01;14.00;;;3.28;;
52798;SDS011;38667;42.872;74.622;2022-08-25T04:04:28;7.30;;;3.28;;
52798;SDS011;38667;42.872;74.622;2022-08-25T04:06:54;4.78;;;2.70;;
52798;SDS011;38667;42.872;74.622;2022-08-25T04:09:21;11.32;;;3.05;;
52798;SDS011;38667;42.872;74.622;2022-08-25T04:11:49;16.15;;;2.85;;
52798;SDS011;38667;42.872;74.622;2022-08-25T04:14:16;9.70;;;2.63;;
52798;SDS011;38667;42.872;74.622;2022-08-25T04:16:46;6.18;;;2.45;;
52798;SDS011;38667;42.872;74.622;2022-08-25T04:19:13;7.30;;;2.60;;
52798;SDS011;38667;42.872;74.622;2022-08-25T04:21:40;5.63;;;2.78;;
52798;SDS011;38667;42.872;74.622;2022-08-25T04:24:08;3.70;;;2.05;;
52798;SDS011;38667;42.872;74.622;2022-08-25T04:26:36;9.25;;;2.60;;
52798;SDS011;38667;42.872;74.622;2022-08-25T04:29:06;11.10;;;2.15;;
52798;SDS011;38667;42.872;74.622;2022-08-25T04:31:33;5.03;;;2.50;;
52798;SDS011;38667;42.872;74.622;2022-08-25T04:34:00;4.75;;;2.50;;
52798;SDS011;38667;42.872;74.622;2022-08-25T04:36:26;8.00;;;2.10;;
52798;SDS011;38667;42.872;74.622;2022-08-25T04:38:53;5.78;;;2.17;;
52798;SDS011;38667;42.872;74.622;2022-08-25T04:41:20;6.57;;;3.17;;
52798;SDS011;38667;42.872;74.622;2022-08-25T04:43:47;8.18;;;2.40;;
52798;SDS011;38667;42.872;74.622;2022-08-25T04:46:16;11.73;;;2.70;;
52798;SDS011;38667;42.872;74.622;2022-08-25T04:48:44;6.57;;;2.90;;
52798;SDS011;38667;42.872;74.622;2022-08-25T04:51:12;5.13;;;2.45;;
52798;SDS011;38667;42.872;74.622;2022-08-25T04:53:41;7.45;;;2.83;;
52798;SDS011;38667;42.872;74.622;2022-08-25T04:56:07;6.63;;;2.42;;
52798;SDS011;38667;42.872;74.622;2022-08-25T04:58:35;7.88;;;2.45;;
52798;SDS011;38667;42.872;74.622;2022-08-25T05:01:02;9.60;;;2.63;;
52798;SDS011;38667;42.872;74.622;2022-08-25T05:03:31;5.70;;;2.67;;
52798;SDS011;38667;42.872;74.622;2022-08-25T05:05:57;5.90;;;2.40;;
52798;SDS011;38667;42.872;74.622;2022-08-25T05:08:23;10.70;;;2.50;;
52798;SDS011;38667;42.872;74.622;2022-08-25T05:10:50;6.25;;;3.00;;
52798;SDS011;38667;42.872;74.622;2022-08-25T05:13:16;9.82;;;3.10;;
52798;SDS011;38667;42.872;74.622;2022-08-25T05:15:42;5.88;;;2.38;;
52798;SDS011;38667;42.872;74.622;2022-08-25T05:18:15;4.72;;;2.50;;
52798;SDS011;38667;42.872;74.622;2022-08-25T05:20:43;8.13;;;3.10;;
52798;SDS011;38667;42.872;74.622;2022-08-25T05:23:10;10.98;;;2.78;;
52798;SDS011;38667;42.872;74.622;2022-08-25T05:25:36;8.50;;;2.47;;
52798;SDS011;38667;42.872;74.622;2022-08-25T05:28:03;6.05;;;2.10;;
52798;SDS011;38667;42.872;74.622;2022-08-25T05:30:29;6.53;;;2.50;;
52798;SDS011;38667;42.872;74.622;2022-08-25T05:32:55;9.40;;;2.30;;
52798;SDS011;38667;42.872;74.622;2022-08-25T05:35:21;8.07;;;2.28;;
52798;SDS011;38667;42.872;74.622;2022-08-25T05:37:49;7.70;;;2.70;;
52798;SDS011;38667;42.872;74.622;2022-08-25T05:40:16;7.75;;;2.90;;
52798;SDS011;38667;42.872;74.622;2022-08-25T05:42:42;5.68;;;2.60;;
52798;SDS011;38667;42.872;74.622;2022-08-25T05:45:09;10.20;;;2.95;;
52798;SDS011;38667;42.872;74.622;2022-08-25T05:47:35;4.32;;;2.63;;
52798;SDS011;38667;42.872;74.622;2022-08-25T05:50:02;6.40;;;2.38;;
52798;SDS011;38667;42.872;74.622;2022-08-25T05:52:28;9.75;;;2.63;;
52798;SDS011;38667;42.872;74.622;2022-08-25T05:54:57;3.80;;;2.00;;
52798;SDS011;38667;42.872;74.622;2022-08-25T05:57:23;7.28;;;1.80;;
52798;SDS011;38667;42.872;74.622;2022-08-25T05:59:50;6.95;;;2.33;;
52798;SDS011;38667;42.872;74.622;2022-08-25T06:02:16;7.15;;;1.95;;
52798;SDS011;38667;42.872;74.622;2022-08-25T06:04:42;7.25;;;2.40;;
52798;SDS011;38667;42.872;74.622;2022-08-25T06:07:09;6.78;;;2.30;;
52798;SDS011;38667;42.872;74.622;2022-08-25T06:09:36;4.32;;;2.03;;
52798;SDS011;38667;42.872;74.622;2022-08-25T06:12:04;8.25;;;2.30;;
52798;SDS011;38667;42.872;74.622;2022-08-25T06:14:31;7.75;;;2.00;;
52798;SDS011;38667;42.872;74.622;2022-08-25T06:16:57;9.75;;;2.67;;
52798;SDS011;38667;42.872;74.622;2022-08-25T06:19:24;9.90;;;1.98;;
52798;SDS011;38667;42.872;74.622;2022-08-25T06:21:52;9.63;;;2.05;;
52798;SDS011;38667;42.872;74.622;2022-08-25T06:24:19;5.22;;;2.22;;
52798;SDS011;38667;42.872;74.622;2022-08-25T06:26:45;8.00;;;2.58;;
52798;SDS011;38667;42.872;74.622;2022-08-25T06:29:13;11.70;;;2.30;;
52798;SDS011;38667;42.872;74.622;2022-08-25T06:31:40;9.95;;;2.63;;
52798;SDS011;38667;42.872;74.622;2022-08-25T06:34:06;9.68;;;2.30;;
52798;SDS011;38667;42.872;74.622;2022-08-25T06:36:33;13.60;;;3.72;;
52798;SDS011;38667;42.872;74.622;2022-08-25T06:39:00;11.27;;;2.60;;
52798;SDS011;38667;42.872;74.622;2022-08-25T06:41:26;8.98;;;2.42;;
52798;SDS011;38667;42.872;74.622;2022-08-25T06:43:53;15.65;;;3.05;;
52798;SDS011;38667;42.872;74.622;2022-08-25T06:46:22;31.13;;;3.33;;
52798;SDS011;38667;42.872;74.622;2022-08-25T06:48:49;39.13;;;4.25;;
52798;SDS011;38667;42.872;74.622;2022-08-25T06:51:16;29.23;;;3.53;;
52798;SDS011;38667;42.872;74.622;2022-08-25T06:53:45;21.50;;;3.17;;
52798;SDS011;38667;42.872;74.622;2022-08-25T06:56:13;16.58;;;2.45;;
52798;SDS011;38667;42.872;74.622;2022-08-25T06:58:40;18.88;;;3.20;;
52798;SDS011;38667;42.872;74.622;2022-08-25T07:01:07;5.68;;;2.60;;
52798;SDS011;38667;42.872;74.622;2022-08-25T07:03:35;16.98;;;3.65;;
52798;SDS011;38667;42.872;74.622;2022-08-25T07:06:02;7.60;;;2.55;;
52798;SDS011;38667;42.872;74.622;2022-08-25T07:08:28;11.20;;;2.83;;
52798;SDS011;38667;42.872;74.622;2022-08-25T07:10:55;6.05;;;2.50;;
52798;SDS011;38667;42.872;74.622;2022-08-25T07:13:22;10.45;;;2.28;;
52798;SDS011;38667;42.872;74.622;2022-08-25T07:15:51;8.43;;;2.47;;
52798;SDS011;38667;42.872;74.622;2022-08-25T07:18:18;10.60;;;2.30;;
52798;SDS011;38667;42.872;74.622;2022-08-25T07:20:46;10.75;;;2.20;;
52798;SDS011;38667;42.872;74.622;2022-08-25T07:23:13;8.07;;;2.30;;
52798;SDS011;38667;42.872;74.622;2022-08-25T07:25:39;9.02;;;1.98;;
52798;SDS011;38667;42.872;74.622;2022-08-25T07:28:05;10.70;;;2.35;;
52798;SDS011;38667;42.872;74.622;2022-08-25T07:30:31;3.53;;;2.17;;
52798;SDS011;38667;42.872;74.622;2022-08-25T07:32:58;12.23;;;2.13;;
52798;SDS011;38667;42.872;74.622;2022-08-25T07:35:24;8.35;;;2.45;;
52798;SDS011;38667;42.872;74.622;2022-08-25T07:37:53;9.35;;;2.67;;
52798;SDS011;38667;42.872;74.622;2022-08-25T07:40:21;11.50;;;2.22;;
52798;SDS011;38667;42.872;74.622;2022-08-25T07:42:49;10.55;;;2.13;;
52798;SDS011;38667;42.872;74.622;2022-08-25T07:45:15;10.90;;;2.80;;
52798;SDS011;38667;42.872;74.622;2022-08-25T07:47:42;6.72;;;2.17;;
52798;SDS011;38667;42.872;74.622;2022-08-25T07:50:09;5.40;;;2.28;;
52798;SDS011;38667;42.872;74.622;2022-08-25T07:52:36;6.10;;;2.20;;
52798;SDS011;38667;42.872;74.622;2022-08-25T07:55:05;7.53;;;2.22;;
52798;SDS011;38667;42.872;74.622;2022-08-25T07:57:33;8.80;;;2.30;;
52798;SDS011;38667;42.872;74.622;2022-08-25T07:59:59;4.13;;;2.10;;
52798;SDS011;38667;42.872;74.622;2022-08-25T08:02:25;4.32;;;1.77;;
52798;SDS011;38667;42.872;74.622;2022-08-25T08:04:52;9.20;;;2.08;;
52798;SDS011;38667;42.872;74.622;2022-08-25T08:07:21;5.70;;;2.40;;
52798;SDS011;38667;42.872;74.622;2022-08-25T08:09:48;4.75;;;1.90;;
52798;SDS011;38667;42.872;74.622;2022-08-25T08:12:16;6.53;;;2.22;;
52798;SDS011;38667;42.872;74.622;2022-08-25T08:14:43;10.85;;;2.42;;
52798;SDS011;38667;42.872;74.622;2022-08-25T08:17:09;3.33;;;1.92;;
52798;SDS011;38667;42.872;74.622;2022-08-25T08:19:36;5.80;;;2.30;;
52798;SDS011;38667;42.872;74.622;2022-08-25T08:22:04;5.88;;;2.40;;
52798;SDS011;38667;42.872;74.622;2022-08-25T08:24:31;8.68;;;2.40;;
52798;SDS011;38667;42.872;74.622;2022-08-25T08:26:58;5.75;;;2.00;;
52798;SDS011;38667;42.872;74.622;2022-08-25T08:29:27;22.55;;;2.75;;
52798;SDS011;38667;42.872;74.622;2022-08-25T08:31:53;9.10;;;2.63;;
52798;SDS011;38667;42.872;74.622;2022-08-25T08:34:21;12.18;;;2.78;;
52798;SDS011;38667;42.872;74.622;2022-08-25T08:36:47;10.65;;;2.78;;
52798;SDS011;38667;42.872;74.622;2022-08-25T08:39:13;9.52;;;2.30;;
52798;SDS011;38667;42.872;74.622;2022-08-25T08:44:33;11.02;;;2.53;;
52798;SDS011;38667;42.872;74.622;2022-08-25T08:47:09;7.80;;;2.45;;
52798;SDS011;38667;42.872;74.622;2022-08-25T08:49:43;16.30;;;3.25;;
52798;SDS011;38667;42.872;74.622;2022-08-25T08:52:18;10.05;;;2.70;;
52798;SDS011;38667;42.872;74.622;2022-08-25T08:54:49;6.40;;;2.58;;
52798;SDS011;38667;42.872;74.622;2022-08-25T08:57:23;8.60;;;2.92;;
52798;SDS011;38667;42.872;74.622;2022-08-25T08:59:54;7.75;;;2.85;;
52798;SDS011;38667;42.872;74.622;2022-08-25T09:02:25;20.40;;;3.25;;
52798;SDS011;38667;42.872;74.622;2022-08-25T09:04:54;18.98;;;3.60;;
52798;SDS011;38667;42.872;74.622;2022-08-25T09:07:25;9.68;;;3.28;;
52798;SDS011;38667;42.872;74.622;2022-08-25T09:09:55;8.15;;;2.97;;
52798;SDS011;38667;42.872;74.622;2022-08-25T09:12:25;10.63;;;2.70;;
52798;SDS011;38667;42.872;74.622;2022-08-25T09:15:03;7.65;;;2.85;;
52798;SDS011;38667;42.872;74.622;2022-08-25T09:17:41;8.43;;;2.85;;
52798;SDS011;38667;42.872;74.622;2022-08-25T09:23:10;10.02;;;2.95;;
52798;SDS011;38667;42.872;74.622;2022-08-25T09:25:50;9.98;;;3.05;;
52798;SDS011;38667;42.872;74.622;2022-08-25T09:28:24;15.13;;;2.85;;
52798;SDS011;38667;42.872;74.622;2022-08-25T09:30:58;15.32;;;3.45;;
52798;SDS011;38667;42.872;74.622;2022-08-25T09:33:27;13.45;;;2.97;;
52798;SDS011;38667;42.872;74.622;2022-08-25T09:35:55;7.78;;;3.05;;
52798;SDS011;38667;42.872;74.622;2022-08-25T09:38:22;10.48;;;3.08;;
52798;SDS011;38667;42.872;74.622;2022-08-25T09:40:50;7.28;;;2.72;;
52798;SDS011;38667;42.872;74.622;2022-08-25T09:43:20;13.32;;;3.08;;
52798;SDS011;38667;42.872;74.622;2022-08-25T09:45:49;7.28;;;3.20;;
52798;SDS011;38667;42.872;74.622;2022-08-25T09:48:25;9.27;;;3.05;;
52798;SDS011;38667;42.872;74.622;2022-08-25T09:51:00;9.60;;;3.25;;
52798;SDS011;38667;42.872;74.622;2022-08-25T09:53:41;12.90;;;3.45;;
52798;SDS011;38667;42.872;74.622;2022-08-25T09:56:10;12.95;;;2.90;;
52798;SDS011;38667;42.872;74.622;2022-08-25T09:58:36;12.95;;;3.10;;
52798;SDS011;38667;42.872;74.622;2022-08-25T10:01:10;9.18;;;3.92;;
52798;SDS011;38667;42.872;74.622;2022-08-25T10:03:46;7.68;;;3.95;;
52798;SDS011;38667;42.872;74.622;2022-08-25T10:06:22;6.45;;;2.92;;
52798;SDS011;38667;42.872;74.622;2022-08-25T10:08:55;8.10;;;3.58;;
52798;SDS011;38667;42.872;74.622;2022-08-25T10:11:35;9.60;;;3.10;;
52798;SDS011;38667;42.872;74.622;2022-08-25T10:14:07;9.88;;;3.42;;
52798;SDS011;38667;42.872;74.622;2022-08-25T10:16:42;12.63;;;3.83;;
52798;SDS011;38667;42.872;74.622;2022-08-25T10:19:11;11.02;;;3.72;;
52798;SDS011;38667;42.872;74.622;2022-08-25T10:21:39;7.38;;;3.47;;
52798;SDS011;38667;42.872;74.622;2022-08-25T10:24:09;10.98;;;4.10;;
52798;SDS011;38667;42.872;74.622;2022-08-25T10:26:46;9.00;;;5.22;;
52798;SDS011;38667;42.872;74.622;2022-08-25T10:29:27;8.23;;;3.58;;
52798;SDS011;38667;42.872;74.622;2022-08-25T10:32:00;9.57;;;3.50;;
52798;SDS011;38667;42.872;74.622;2022-08-25T10:34:36;10.63;;;4.55;;
52798;SDS011;38667;42.872;74.622;2022-08-25T10:37:11;12.27;;;3.15;;
52798;SDS011;38667;42.872;74.622;2022-08-25T10:39:45;6.55;;;3.08;;
52798;SDS011;38667;42.872;74.622;2022-08-25T10:42:32;20.65;;;3.70;;
52798;SDS011;38667;42.872;74.622;2022-08-25T10:45:14;11.05;;;2.88;;
52798;SDS011;38667;42.872;74.622;2022-08-25T10:47:47;11.73;;;3.95;;
52798;SDS011;38667;42.872;74.622;2022-08-25T10:50:36;6.25;;;2.95;;
52798;SDS011;38667;42.872;74.622;2022-08-25T10:53:13;8.25;;;2.55;;
52798;SDS011;38667;42.872;74.622;2022-08-25T10:55:49;11.90;;;2.90;;
52798;SDS011;38667;42.872;74.622;2022-08-25T10:58:26;11.27;;;3.45;;
52798;SDS011;38667;42.872;74.622;2022-08-25T11:01:02;7.97;;;3.38;;
52798;SDS011;38667;42.872;74.622;2022-08-25T11:03:38;11.05;;;2.85;;
52798;SDS011;38667;42.872;74.622;2022-08-25T11:06:13;7.45;;;2.80;;
52798;SDS011;38667;42.872;74.622;2022-08-25T11:08:44;6.88;;;2.83;;
52798;SDS011;38667;42.872;74.622;2022-08-25T11:11:15;8.23;;;3.30;;
52798;SDS011;38667;42.872;74.622;2022-08-25T11:13:49;7.00;;;2.60;;
52798;SDS011;38667;42.872;74.622;2022-08-25T11:16:20;11.02;;;3.20;;
52798;SDS011;38667;42.872;74.622;2022-08-25T11:18:56;9.82;;;3.40;;
52798;SDS011;38667;42.872;74.622;2022-08-25T11:21:34;11.25;;;3.80;;
52798;SDS011;38667;42.872;74.622;2022-08-25T11:24:12;13.55;;;3.65;;
52798;SDS011;38667;42.872;74.622;2022-08-25T11:26:52;12.55;;;2.97;;
52798;SDS011;38667;42.872;74.622;2022-08-25T11:29:20;9.23;;;3.28;;
52798;SDS011;38667;42.872;74.622;2022-08-25T11:31:51;9.23;;;2.55;;
52798;SDS011;38667;42.872;74.622;2022-08-25T11:34:18;7.82;;;2.88;;
52798;SDS011;38667;42.872;74.622;2022-08-25T11:36:49;7.47;;;2.97;;
52798;SDS011;38667;42.872;74.622;2022-08-25T11:39:23;6.03;;;2.67;;
52798;SDS011;38667;42.872;74.622;2022-08-25T11:42:03;10.82;;;3.00;;
52798;SDS011;38667;42.872;74.622;2022-08-25T11:44:43;6.40;;;3.00;;
52798;SDS011;38667;42.872;74.622;2022-08-25T11:47:19;5.30;;;2.42;;
52798;SDS011;38667;42.872;74.622;2022-08-25T11:49:56;15.00;;;3.25;;
52798;SDS011;38667;42.872;74.622;2022-08-25T11:52:40;9.57;;;3.13;;
52798;SDS011;38667;42.872;74.622;2022-08-25T11:55:12;10.40;;;2.53;;
52798;SDS011;38667;42.872;74.622;2022-08-25T11:57:41;10.55;;;2.53;;
52798;SDS011;38667;42.872;74.622;2022-08-25T12:00:09;10.32;;;3.45;;
52798;SDS011;38667;42.872;74.622;2022-08-25T12:02:39;15.65;;;2.80;;
52798;SDS011;38667;42.872;74.622;2022-08-25T12:05:08;7.35;;;2.42;;
52798;SDS011;38667;42.872;74.622;2022-08-25T12:08:04;8.95;;;3.15;;
52798;SDS011;38667;42.872;74.622;2022-08-25T12:10:51;18.27;;;3.03;;
52798;SDS011;38667;42.872;74.622;2022-08-25T12:13:23;10.88;;;3.00;;
52798;SDS011;38667;42.872;74.622;2022-08-25T12:16:04;8.68;;;3.05;;
52798;SDS011;38667;42.872;74.622;2022-08-25T12:18:39;6.55;;;2.80;;
52798;SDS011;38667;42.872;74.622;2022-08-25T12:21:10;9.00;;;3.55;;
52798;SDS011;38667;42.872;74.622;2022-08-25T12:23:42;5.50;;;2.63;;
52798;SDS011;38667;42.872;74.622;2022-08-25T12:26:29;14.82;;;3.42;;
52798;SDS011;38667;42.872;74.622;2022-08-25T12:29:04;8.70;;;3.65;;
52798;SDS011;38667;42.872;74.622;2022-08-25T12:31:40;10.20;;;2.70;;
52798;SDS011;38667;42.872;74.622;2022-08-25T12:34:30;12.00;;;2.85;;
52798;SDS011;38667;42.872;74.622;2022-08-25T12:37:11;11.35;;;3.58;;
52798;SDS011;38667;42.872;74.622;2022-08-25T12:39:44;10.82;;;3.13;;
52798;SDS011;38667;42.872;74.622;2022-08-25T12:42:21;6.97;;;2.63;;
52798;SDS011;38667;42.872;74.622;2022-08-25T12:47:38;8.75;;;3.33;;
52798;SDS011;38667;42.872;74.622;2022-08-25T12:53:08;10.85;;;2.58;;
52798;SDS011;38667;42.872;74.622;2022-08-25T12:55:41;5.97;;;2.78;;
52798;SDS011;38667;42.872;74.622;2022-08-25T12:58:11;11.85;;;3.08;;
52798;SDS011;38667;42.872;74.622;2022-08-25T13:00:45;9.35;;;2.85;;
52798;SDS011;38667;42.872;74.622;2022-08-25T13:03:25;7.97;;;2.47;;
52798;SDS011;38667;42.872;74.622;2022-08-25T13:06:24;15.63;;;3.60;;
52798;SDS011;38667;42.872;74.622;2022-08-25T13:09:17;11.30;;;3.08;;
52798;SDS011;38667;42.872;74.622;2022-08-25T13:12:15;10.13;;;2.70;;
52798;SDS011;38667;42.872;74.622;2022-08-25T13:14:51;13.10;;;3.30;;
52798;SDS011;38667;42.872;74.622;2022-08-25T13:17:23;13.32;;;3.35;;
52798;SDS011;38667;42.872;74.622;2022-08-25T13:19:50;10.45;;;2.97;;
52798;SDS011;38667;42.872;74.622;2022-08-25T13:22:34;10.35;;;3.58;;
52798;SDS011;38667;42.872;74.622;2022-08-25T13:25:01;10.40;;;3.67;;
52798;SDS011;38667;42.872;74.622;2022-08-25T13:27:29;10.13;;;2.92;;
52798;SDS011;38667;42.872;74.622;2022-08-25T13:29:59;12.48;;;3.60;;
52798;SDS011;38667;42.872;74.622;2022-08-25T13:32:26;16.13;;;3.90;;
52798;SDS011;38667;42.872;74.622;2022-08-25T13:35:06;9.77;;;3.70;;
52798;SDS011;38667;42.872;74.622;2022-08-25T13:37:36;12.57;;;4.45;;
52798;SDS011;38667;42.872;74.622;2022-08-25T13:40:12;11.68;;;5.63;;
52798;SDS011;38667;42.872;74.622;2022-08-25T13:42:42;12.43;;;3.88;;
52798;SDS011;38667;42.872;74.622;2022-08-25T13:45:11;18.70;;;4.85;;
52798;SDS011;38667;42.872;74.622;2022-08-25T13:47:41;17.63;;;5.30;;
52798;SDS011;38667;42.872;74.622;2022-08-25T13:50:15;13.88;;;5.15;;
52798;SDS011;38667;42.872;74.622;2022-08-25T13:52:45;20.73;;;5.82;;
52798;SDS011;38667;42.872;74.622;2022-08-25T13:55:18;14.88;;;5.00;;
52798;SDS011;38667;42.872;74.622;2022-08-25T13:57:48;13.23;;;4.95;;
52798;SDS011;38667;42.872;74.622;2022-08-25T14:00:24;21.13;;;4.68;;
52798;SDS011;38667;42.872;74.622;2022-08-25T14:02:53;16.25;;;4.78;;
52798;SDS011;38667;42.872;74.622;2022-08-25T14:05:29;23.08;;;5.10;;
52798;SDS011;38667;42.872;74.622;2022-08-25T14:08:01;8.68;;;3.67;;
52798;SDS011;38667;42.872;74.622;2022-08-25T14:10:34;14.65;;;4.18;;
52798;SDS011;38667;42.872;74.622;2022-08-25T14:13:09;10.05;;;3.85;;
52798;SDS011;38667;42.872;74.622;2022-08-25T14:15:39;12.05;;;4.07;;
52798;SDS011;38667;42.872;74.622;2022-08-25T14:18:07;9.68;;;3.80;;
52798;SDS011;38667;42.872;74.622;2022-08-25T14:20:41;10.75;;;3.40;;
52798;SDS011;38667;42.872;74.622;2022-08-25T14:23:11;11.95;;;3.78;;
52798;SDS011;38667;42.872;74.622;2022-08-25T14:25:41;9.35;;;2.97;;
52798;SDS011;38667;42.872;74.622;2022-08-25T14:28:10;10.23;;;3.20;;
52798;SDS011;38667;42.872;74.622;2022-08-25T14:30:39;9.32;;;3.08;;
52798;SDS011;38667;42.872;74.622;2022-08-25T14:33:08;14.27;;;3.75;;
52798;SDS011;38667;42.872;74.622;2022-08-25T14:35:36;11.45;;;3.53;;
52798;SDS011;38667;42.872;74.622;2022-08-25T14:38:03;12.48;;;3.58;;
52798;SDS011;38667;42.872;74.622;2022-08-25T14:40:32;10.52;;;3.65;;
52798;SDS011;38667;42.872;74.622;2022-08-25T14:42:58;13.38;;;4.35;;
52798;SDS011;38667;42.872;74.622;2022-08-25T14:45:26;10.50;;;5.05;;
52798;SDS011;38667;42.872;74.622;2022-08-25T14:47:52;21.75;;;5.63;;
52798;SDS011;38667;42.872;74.622;2022-08-25T14:50:24;12.18;;;5.65;;
52798;SDS011;38667;42.872;74.622;2022-08-25T14:52:50;11.40;;;5.13;;
52798;SDS011;38667;42.872;74.622;2022-08-25T14:55:17;12.07;;;4.82;;